Pagina principale
METAR-TAF:

METAR-TAF

Aeroporti :

Buochs, Svizzera

latitudine: 46-58-28N, longitudine: 8-23-49E, altezza: 449 m

Osservazione

Il bollettino è stato emesso 30 minuti fa, alle 17:20 UTC
Vento 2 kt da direzioni variabili
Temperature 1°C
Umidità 93%
Pressione 1017 hPa
Visibilità 10 km o più
Cielo coperto ad un'altezza di 1600 ft

METAR: LSZC 061720Z AUTO VRB02KT 9999 OVC016 01/00 Q1017

Ora: 18:50 (17:50 UTC)

Previsione

Il bollettino è stato emesso 3 ore e 25 minuti fa, alle 14:25 UTC
Previsione valida dal 06 alle 15 UTC al 06 alle 24 UTC
Vento 2 kt da direzioni variabili
Visibilità 10 km o più
Poco nuvoloso ad un'altezza di 1100 ft
Temporaneamente
dal 06 alle 15 UTC al 06 alle 18 UTC
Visibilità 10 km o più
nessuna nube inferiore a 1500 m e nessun cumulonembo
Evoluzione graduale
dal 06 alle 18 UTC al 06 alle 21 UTC
Nuvoloso ad un'altezza di 1200 ft

TAF: LSZC 061425Z 0615/0624 VRB02KT 9999 FEW011 TEMPO 0615/0618 CAVOK BECMG 0618/0621 BKN012

Osservazioni e previsioni meteorologiche di più di 4000 aeroporti (messaggi METAR e TAF).

Le stazioni disponibili sono rappresentate dai dischi gialli e rossi sulla carta.

Puntare il mouse per vedere il nome della stazione.

Clicca sopra per visualizzare le osservazioni e previsioni meteorologiche.

Per cambiare la mappa : fare clic sui pulsanti verdi con una croce nera per ingrandire, il pulsante verde con un trattino per diminuire, o sulla freccia verde per le mappe adiacenti.


METAR-TAF: